sensor_id;sensor_type;location;lat;lon;timestamp;temperature;humidity
1337;DHT22;662;48.814;9.318;2023-04-25T00:00:26;11.80;56.10
1337;DHT22;662;48.814;9.318;2023-04-25T00:02:52;11.80;56.20
1337;DHT22;662;48.814;9.318;2023-04-25T00:05:17;11.80;56.40
1337;DHT22;662;48.814;9.318;2023-04-25T00:07:44;11.80;56.30
1337;DHT22;662;48.814;9.318;2023-04-25T00:10:11;11.80;56.40
1337;DHT22;662;48.814;9.318;2023-04-25T00:12:37;11.80;56.40
1337;DHT22;662;48.814;9.318;2023-04-25T00:15:03;11.70;56.40
1337;DHT22;662;48.814;9.318;2023-04-25T00:17:29;11.70;56.50
1337;DHT22;662;48.814;9.318;2023-04-25T00:19:55;11.70;56.50
1337;DHT22;662;48.814;9.318;2023-04-25T00:22:21;11.70;56.60
1337;DHT22;662;48.814;9.318;2023-04-25T00:24:46;11.70;56.80
1337;DHT22;662;48.814;9.318;2023-04-25T00:27:13;11.70;56.90
1337;DHT22;662;48.814;9.318;2023-04-25T00:29:39;11.80;56.90
1337;DHT22;662;48.814;9.318;2023-04-25T00:32:05;11.80;57.00
1337;DHT22;662;48.814;9.318;2023-04-25T00:34:30;11.80;57.00
1337;DHT22;662;48.814;9.318;2023-04-25T00:36:56;11.80;57.00
1337;DHT22;662;48.814;9.318;2023-04-25T00:39:22;11.80;57.00
1337;DHT22;662;48.814;9.318;2023-04-25T00:41:48;11.80;56.90
1337;DHT22;662;48.814;9.318;2023-04-25T00:44:15;11.80;56.90
1337;DHT22;662;48.814;9.318;2023-04-25T00:46:42;11.90;56.90
1337;DHT22;662;48.814;9.318;2023-04-25T00:49:08;11.90;57.00
1337;DHT22;662;48.814;9.318;2023-04-25T00:51:34;11.80;56.80
1337;DHT22;662;48.814;9.318;2023-04-25T00:54:01;11.80;56.80
1337;DHT22;662;48.814;9.318;2023-04-25T00:56:27;11.80;56.90
1337;DHT22;662;48.814;9.318;2023-04-25T00:58:56;11.80;57.00
1337;DHT22;662;48.814;9.318;2023-04-25T01:01:22;11.80;57.00
1337;DHT22;662;48.814;9.318;2023-04-25T01:03:49;11.70;57.00
1337;DHT22;662;48.814;9.318;2023-04-25T01:06:15;11.70;57.10
1337;DHT22;662;48.814;9.318;2023-04-25T01:08:41;11.70;57.20
1337;DHT22;662;48.814;9.318;2023-04-25T01:11:07;11.60;57.10
1337;DHT22;662;48.814;9.318;2023-04-25T01:13:33;11.60;57.20
1337;DHT22;662;48.814;9.318;2023-04-25T01:16:00;11.60;57.30
1337;DHT22;662;48.814;9.318;2023-04-25T01:18:26;11.60;57.30
1337;DHT22;662;48.814;9.318;2023-04-25T01:20:52;11.50;57.20
1337;DHT22;662;48.814;9.318;2023-04-25T01:23:21;11.50;57.20
1337;DHT22;662;48.814;9.318;2023-04-25T01:25:48;11.50;57.30
1337;DHT22;662;48.814;9.318;2023-04-25T01:28:14;11.50;57.40
1337;DHT22;662;48.814;9.318;2023-04-25T01:30:41;11.50;57.30
1337;DHT22;662;48.814;9.318;2023-04-25T01:33:08;11.50;57.30
1337;DHT22;662;48.814;9.318;2023-04-25T01:35:33;11.50;57.30
1337;DHT22;662;48.814;9.318;2023-04-25T01:38:00;11.50;57.40
1337;DHT22;662;48.814;9.318;2023-04-25T01:40:26;11.50;57.50
1337;DHT22;662;48.814;9.318;2023-04-25T01:42:52;11.50;57.40
1337;DHT22;662;48.814;9.318;2023-04-25T01:45:18;11.50;57.50
1337;DHT22;662;48.814;9.318;2023-04-25T01:47:44;11.50;57.40
1337;DHT22;662;48.814;9.318;2023-04-25T01:50:14;11.50;57.50
1337;DHT22;662;48.814;9.318;2023-04-25T01:52:40;11.50;57.70
1337;DHT22;662;48.814;9.318;2023-04-25T01:55:06;11.50;57.70
1337;DHT22;662;48.814;9.318;2023-04-25T01:57:32;11.50;57.70
1337;DHT22;662;48.814;9.318;2023-04-25T02:00:00;11.50;57.90
1337;DHT22;662;48.814;9.318;2023-04-25T02:02:26;11.40;57.90
1337;DHT22;662;48.814;9.318;2023-04-25T02:04:52;11.40;57.90
1337;DHT22;662;48.814;9.318;2023-04-25T02:07:18;11.40;58.00
1337;DHT22;662;48.814;9.318;2023-04-25T02:09:43;11.40;58.10
1337;DHT22;662;48.814;9.318;2023-04-25T02:12:10;11.40;58.20
1337;DHT22;662;48.814;9.318;2023-04-25T02:14:35;11.40;58.30
1337;DHT22;662;48.814;9.318;2023-04-25T02:17:01;11.40;58.50
1337;DHT22;662;48.814;9.318;2023-04-25T02:19:27;11.40;58.50
1337;DHT22;662;48.814;9.318;2023-04-25T02:21:53;11.40;58.60
1337;DHT22;662;48.814;9.318;2023-04-25T02:24:18;11.40;58.70
1337;DHT22;662;48.814;9.318;2023-04-25T02:26:44;11.40;58.70
1337;DHT22;662;48.814;9.318;2023-04-25T02:29:10;11.40;58.80
1337;DHT22;662;48.814;9.318;2023-04-25T02:31:35;11.40;58.80
1337;DHT22;662;48.814;9.318;2023-04-25T02:34:01;11.40;58.90
1337;DHT22;662;48.814;9.318;2023-04-25T02:36:27;11.30;58.90
1337;DHT22;662;48.814;9.318;2023-04-25T02:38:53;11.30;59.00
1337;DHT22;662;48.814;9.318;2023-04-25T02:41:18;11.30;59.20
1337;DHT22;662;48.814;9.318;2023-04-25T02:43:44;11.30;59.20
1337;DHT22;662;48.814;9.318;2023-04-25T02:46:10;11.30;59.30
1337;DHT22;662;48.814;9.318;2023-04-25T02:48:35;11.20;59.40
1337;DHT22;662;48.814;9.318;2023-04-25T02:51:01;11.20;59.40
1337;DHT22;662;48.814;9.318;2023-04-25T02:53:26;11.20;59.40
1337;DHT22;662;48.814;9.318;2023-04-25T02:55:52;11.20;59.50
1337;DHT22;662;48.814;9.318;2023-04-25T02:58:18;11.20;59.60
1337;DHT22;662;48.814;9.318;2023-04-25T03:00:44;11.20;59.60
1337;DHT22;662;48.814;9.318;2023-04-25T03:03:10;11.20;59.60
1337;DHT22;662;48.814;9.318;2023-04-25T03:05:36;11.20;59.60
1337;DHT22;662;48.814;9.318;2023-04-25T03:08:01;11.20;59.60
1337;DHT22;662;48.814;9.318;2023-04-25T03:10:27;11.20;59.60
1337;DHT22;662;48.814;9.318;2023-04-25T03:12:53;11.20;59.60
1337;DHT22;662;48.814;9.318;2023-04-25T03:15:18;11.20;59.70
1337;DHT22;662;48.814;9.318;2023-04-25T03:17:44;11.20;59.80
1337;DHT22;662;48.814;9.318;2023-04-25T03:20:10;11.20;59.90
1337;DHT22;662;48.814;9.318;2023-04-25T03:22:36;11.20;59.90
1337;DHT22;662;48.814;9.318;2023-04-25T03:25:02;11.20;60.00
1337;DHT22;662;48.814;9.318;2023-04-25T03:27:28;11.20;60.00
1337;DHT22;662;48.814;9.318;2023-04-25T03:29:53;11.20;60.10
1337;DHT22;662;48.814;9.318;2023-04-25T03:32:19;11.20;60.20
1337;DHT22;662;48.814;9.318;2023-04-25T03:34:45;11.10;60.10
1337;DHT22;662;48.814;9.318;2023-04-25T03:37:10;11.10;60.10
1337;DHT22;662;48.814;9.318;2023-04-25T03:39:36;11.10;60.20
1337;DHT22;662;48.814;9.318;2023-04-25T03:42:03;11.10;60.00
1337;DHT22;662;48.814;9.318;2023-04-25T03:44:28;11.10;59.90
1337;DHT22;662;48.814;9.318;2023-04-25T03:46:54;11.10;60.00
1337;DHT22;662;48.814;9.318;2023-04-25T03:49:20;11.20;60.10
1337;DHT22;662;48.814;9.318;2023-04-25T03:51:46;11.20;60.40
1337;DHT22;662;48.814;9.318;2023-04-25T03:54:11;11.20;60.60
1337;DHT22;662;48.814;9.318;2023-04-25T03:56:37;11.20;60.70
1337;DHT22;662;48.814;9.318;2023-04-25T03:59:03;11.30;60.80
1337;DHT22;662;48.814;9.318;2023-04-25T04:01:28;11.30;60.80
1337;DHT22;662;48.814;9.318;2023-04-25T04:03:54;11.30;60.90
1337;DHT22;662;48.814;9.318;2023-04-25T04:06:20;11.30;60.70
1337;DHT22;662;48.814;9.318;2023-04-25T04:08:46;11.30;60.60
1337;DHT22;662;48.814;9.318;2023-04-25T04:11:12;11.30;60.60
1337;DHT22;662;48.814;9.318;2023-04-25T04:13:38;11.30;60.50
1337;DHT22;662;48.814;9.318;2023-04-25T04:16:03;11.40;60.40
1337;DHT22;662;48.814;9.318;2023-04-25T04:18:29;11.40;60.40
1337;DHT22;662;48.814;9.318;2023-04-25T04:20:55;11.40;60.20
1337;DHT22;662;48.814;9.318;2023-04-25T04:23:23;11.40;60.10
1337;DHT22;662;48.814;9.318;2023-04-25T04:25:49;11.30;60.00
1337;DHT22;662;48.814;9.318;2023-04-25T04:28:14;11.30;60.00
1337;DHT22;662;48.814;9.318;2023-04-25T04:30:41;11.30;59.90
1337;DHT22;662;48.814;9.318;2023-04-25T04:33:08;11.30;59.80
1337;DHT22;662;48.814;9.318;2023-04-25T04:35:34;11.20;59.80
1337;DHT22;662;48.814;9.318;2023-04-25T04:38:00;11.20;59.80
1337;DHT22;662;48.814;9.318;2023-04-25T04:40:25;11.20;59.80
1337;DHT22;662;48.814;9.318;2023-04-25T04:42:51;11.20;59.80
1337;DHT22;662;48.814;9.318;2023-04-25T04:45:18;11.20;59.80
1337;DHT22;662;48.814;9.318;2023-04-25T04:47:44;11.20;59.90
1337;DHT22;662;48.814;9.318;2023-04-25T04:50:10;11.20;59.90
1337;DHT22;662;48.814;9.318;2023-04-25T04:52:36;11.20;59.80
1337;DHT22;662;48.814;9.318;2023-04-25T04:55:03;11.20;59.70
1337;DHT22;662;48.814;9.318;2023-04-25T04:57:29;11.20;59.70
1337;DHT22;662;48.814;9.318;2023-04-25T04:59:55;11.20;59.70
1337;DHT22;662;48.814;9.318;2023-04-25T05:02:20;11.20;59.70
1337;DHT22;662;48.814;9.318;2023-04-25T05:04:46;11.20;59.80
1337;DHT22;662;48.814;9.318;2023-04-25T05:07:12;11.20;59.80
1337;DHT22;662;48.814;9.318;2023-04-25T05:09:38;11.20;59.80
1337;DHT22;662;48.814;9.318;2023-04-25T05:12:04;11.20;59.80
1337;DHT22;662;48.814;9.318;2023-04-25T05:14:29;11.30;59.80
1337;DHT22;662;48.814;9.318;2023-04-25T05:16:55;11.30;59.80
1337;DHT22;662;48.814;9.318;2023-04-25T05:19:21;11.30;59.70
1337;DHT22;662;48.814;9.318;2023-04-25T05:21:46;11.20;59.70
1337;DHT22;662;48.814;9.318;2023-04-25T05:24:12;11.30;59.80
1337;DHT22;662;48.814;9.318;2023-04-25T05:26:38;11.30;59.60
1337;DHT22;662;48.814;9.318;2023-04-25T05:29:04;11.30;59.50
1337;DHT22;662;48.814;9.318;2023-04-25T05:31:31;11.30;59.60
1337;DHT22;662;48.814;9.318;2023-04-25T05:33:57;11.40;59.60
1337;DHT22;662;48.814;9.318;2023-04-25T05:36:23;11.40;59.10
1337;DHT22;662;48.814;9.318;2023-04-25T05:38:48;11.50;59.20
1337;DHT22;662;48.814;9.318;2023-04-25T05:41:14;11.50;59.20
1337;DHT22;662;48.814;9.318;2023-04-25T05:43:40;11.60;59.30
1337;DHT22;662;48.814;9.318;2023-04-25T05:46:14;11.60;59.00
1337;DHT22;662;48.814;9.318;2023-04-25T05:48:40;11.60;59.00
1337;DHT22;662;48.814;9.318;2023-04-25T05:51:07;11.60;58.80
1337;DHT22;662;48.814;9.318;2023-04-25T05:53:33;11.60;58.90
1337;DHT22;662;48.814;9.318;2023-04-25T05:55:58;11.50;59.00
1337;DHT22;662;48.814;9.318;2023-04-25T05:58:24;11.50;59.30
1337;DHT22;662;48.814;9.318;2023-04-25T06:00:50;11.60;59.60
1337;DHT22;662;48.814;9.318;2023-04-25T06:03:16;11.50;60.00
1337;DHT22;662;48.814;9.318;2023-04-25T06:05:42;11.60;60.40
1337;DHT22;662;48.814;9.318;2023-04-25T06:08:08;11.50;60.70
1337;DHT22;662;48.814;9.318;2023-04-25T06:10:34;11.50;61.20
1337;DHT22;662;48.814;9.318;2023-04-25T06:12:59;11.50;61.60
1337;DHT22;662;48.814;9.318;2023-04-25T06:15:25;11.50;62.20
1337;DHT22;662;48.814;9.318;2023-04-25T06:17:50;11.60;62.80
1337;DHT22;662;48.814;9.318;2023-04-25T06:20:16;11.60;62.90
1337;DHT22;662;48.814;9.318;2023-04-25T06:22:42;11.60;63.30
1337;DHT22;662;48.814;9.318;2023-04-25T06:25:07;11.70;63.50
1337;DHT22;662;48.814;9.318;2023-04-25T06:27:34;11.70;63.50
1337;DHT22;662;48.814;9.318;2023-04-25T06:29:59;11.70;63.30
1337;DHT22;662;48.814;9.318;2023-04-25T06:32:25;11.70;62.90
1337;DHT22;662;48.814;9.318;2023-04-25T06:34:52;11.80;63.10
1337;DHT22;662;48.814;9.318;2023-04-25T06:37:18;11.90;63.10
1337;DHT22;662;48.814;9.318;2023-04-25T06:39:44;12.00;62.80
1337;DHT22;662;48.814;9.318;2023-04-25T06:42:09;12.10;62.30
1337;DHT22;662;48.814;9.318;2023-04-25T06:44:35;12.20;61.80
1337;DHT22;662;48.814;9.318;2023-04-25T06:47:01;12.30;62.00
1337;DHT22;662;48.814;9.318;2023-04-25T06:49:26;12.40;61.80
1337;DHT22;662;48.814;9.318;2023-04-25T06:51:52;12.50;61.20
1337;DHT22;662;48.814;9.318;2023-04-25T06:54:18;12.50;60.00
1337;DHT22;662;48.814;9.318;2023-04-25T06:56:43;12.50;59.90
1337;DHT22;662;48.814;9.318;2023-04-25T06:59:09;12.60;59.80
1337;DHT22;662;48.814;9.318;2023-04-25T07:01:35;12.60;59.60
1337;DHT22;662;48.814;9.318;2023-04-25T07:04:00;12.70;59.10
1337;DHT22;662;48.814;9.318;2023-04-25T07:06:26;12.70;58.90
1337;DHT22;662;48.814;9.318;2023-04-25T07:08:53;12.70;58.90
1337;DHT22;662;48.814;9.318;2023-04-25T07:11:19;12.70;58.70
1337;DHT22;662;48.814;9.318;2023-04-25T07:13:45;12.70;58.60
1337;DHT22;662;48.814;9.318;2023-04-25T07:16:10;12.70;58.40
1337;DHT22;662;48.814;9.318;2023-04-25T07:18:36;12.70;58.50
1337;DHT22;662;48.814;9.318;2023-04-25T07:21:02;12.70;58.40
1337;DHT22;662;48.814;9.318;2023-04-25T07:23:27;12.70;58.60
1337;DHT22;662;48.814;9.318;2023-04-25T07:25:53;12.70;58.30
1337;DHT22;662;48.814;9.318;2023-04-25T07:28:19;12.70;58.20
1337;DHT22;662;48.814;9.318;2023-04-25T07:30:44;12.60;58.20
1337;DHT22;662;48.814;9.318;2023-04-25T07:33:10;12.60;58.50
1337;DHT22;662;48.814;9.318;2023-04-25T07:35:36;12.50;58.60
1337;DHT22;662;48.814;9.318;2023-04-25T07:38:02;12.50;58.80
1337;DHT22;662;48.814;9.318;2023-04-25T07:40:28;12.50;58.80
1337;DHT22;662;48.814;9.318;2023-04-25T07:42:54;12.50;59.00
1337;DHT22;662;48.814;9.318;2023-04-25T07:45:19;12.40;59.10
1337;DHT22;662;48.814;9.318;2023-04-25T07:47:45;12.40;59.30
1337;DHT22;662;48.814;9.318;2023-04-25T07:50:11;12.40;59.40
1337;DHT22;662;48.814;9.318;2023-04-25T07:52:37;12.40;59.50
1337;DHT22;662;48.814;9.318;2023-04-25T07:55:02;12.40;59.50
1337;DHT22;662;48.814;9.318;2023-04-25T07:57:29;12.30;59.40
1337;DHT22;662;48.814;9.318;2023-04-25T07:59:56;12.30;59.50
1337;DHT22;662;48.814;9.318;2023-04-25T08:02:21;12.30;59.60
1337;DHT22;662;48.814;9.318;2023-04-25T08:04:50;12.30;59.70
1337;DHT22;662;48.814;9.318;2023-04-25T08:07:16;12.30;59.70
1337;DHT22;662;48.814;9.318;2023-04-25T08:09:41;12.30;59.90
1337;DHT22;662;48.814;9.318;2023-04-25T08:12:07;12.30;60.20
1337;DHT22;662;48.814;9.318;2023-04-25T08:14:33;12.20;60.60
1337;DHT22;662;48.814;9.318;2023-04-25T08:17:04;12.10;61.00
1337;DHT22;662;48.814;9.318;2023-04-25T08:19:30;12.00;61.60
1337;DHT22;662;48.814;9.318;2023-04-25T08:21:56;11.90;62.30
1337;DHT22;662;48.814;9.318;2023-04-25T08:24:22;11.80;63.20
1337;DHT22;662;48.814;9.318;2023-04-25T08:26:48;11.80;63.70
1337;DHT22;662;48.814;9.318;2023-04-25T08:29:14;11.80;64.00
1337;DHT22;662;48.814;9.318;2023-04-25T08:31:40;11.70;64.10
1337;DHT22;662;48.814;9.318;2023-04-25T08:34:05;11.70;64.30
1337;DHT22;662;48.814;9.318;2023-04-25T08:36:32;11.80;64.80
1337;DHT22;662;48.814;9.318;2023-04-25T08:38:58;11.80;65.10
1337;DHT22;662;48.814;9.318;2023-04-25T08:41:24;11.90;65.50
1337;DHT22;662;48.814;9.318;2023-04-25T08:43:51;11.90;65.60
1337;DHT22;662;48.814;9.318;2023-04-25T08:46:20;11.90;66.10
1337;DHT22;662;48.814;9.318;2023-04-25T08:48:46;11.90;66.10
1337;DHT22;662;48.814;9.318;2023-04-25T08:51:22;11.80;65.90
1337;DHT22;662;48.814;9.318;2023-04-25T08:53:53;11.80;66.20
1337;DHT22;662;48.814;9.318;2023-04-25T08:56:19;12.00;66.50
1337;DHT22;662;48.814;9.318;2023-04-25T08:58:51;12.00;66.60
1337;DHT22;662;48.814;9.318;2023-04-25T09:01:17;12.00;66.40
1337;DHT22;662;48.814;9.318;2023-04-25T09:03:44;11.90;66.20
1337;DHT22;662;48.814;9.318;2023-04-25T09:06:12;12.00;66.40
1337;DHT22;662;48.814;9.318;2023-04-25T09:08:38;11.90;66.40
1337;DHT22;662;48.814;9.318;2023-04-25T09:11:06;11.90;66.50
1337;DHT22;662;48.814;9.318;2023-04-25T09:13:32;11.90;66.70
1337;DHT22;662;48.814;9.318;2023-04-25T09:15:58;11.80;66.50
1337;DHT22;662;48.814;9.318;2023-04-25T09:18:32;11.60;66.40
1337;DHT22;662;48.814;9.318;2023-04-25T09:21:05;11.50;66.60
1337;DHT22;662;48.814;9.318;2023-04-25T09:23:43;11.30;66.60
1337;DHT22;662;48.814;9.318;2023-04-25T09:26:08;11.20;66.70
1337;DHT22;662;48.814;9.318;2023-04-25T09:28:35;11.10;66.90
1337;DHT22;662;48.814;9.318;2023-04-25T09:31:01;11.00;66.90
1337;DHT22;662;48.814;9.318;2023-04-25T09:33:32;10.90;66.70
1337;DHT22;662;48.814;9.318;2023-04-25T09:36:06;10.80;67.10
1337;DHT22;662;48.814;9.318;2023-04-25T09:38:43;10.70;66.60
1337;DHT22;662;48.814;9.318;2023-04-25T09:41:10;10.60;67.10
1337;DHT22;662;48.814;9.318;2023-04-25T09:43:36;10.60;67.70
1337;DHT22;662;48.814;9.318;2023-04-25T09:46:02;10.50;68.10
1337;DHT22;662;48.814;9.318;2023-04-25T09:48:28;10.60;68.70
1337;DHT22;662;48.814;9.318;2023-04-25T09:51:04;10.50;69.00
1337;DHT22;662;48.814;9.318;2023-04-25T09:53:30;10.50;69.30
1337;DHT22;662;48.814;9.318;2023-04-25T09:56:00;10.40;69.30
1337;DHT22;662;48.814;9.318;2023-04-25T09:58:29;10.30;69.60
1337;DHT22;662;48.814;9.318;2023-04-25T10:00:58;10.30;70.00
1337;DHT22;662;48.814;9.318;2023-04-25T10:03:25;10.30;70.80
1337;DHT22;662;48.814;9.318;2023-04-25T10:05:52;10.20;71.20
1337;DHT22;662;48.814;9.318;2023-04-25T10:08:20;10.20;71.70
1337;DHT22;662;48.814;9.318;2023-04-25T10:10:46;10.20;72.10
1337;DHT22;662;48.814;9.318;2023-04-25T10:13:14;10.10;73.10
1337;DHT22;662;48.814;9.318;2023-04-25T10:18:44;10.10;73.00
1337;DHT22;662;48.814;9.318;2023-04-25T10:21:10;10.10;73.10
1337;DHT22;662;48.814;9.318;2023-04-25T10:23:36;10.10;73.10
1337;DHT22;662;48.814;9.318;2023-04-25T10:26:02;10.00;72.80
1337;DHT22;662;48.814;9.318;2023-04-25T10:28:28;10.00;72.80
1337;DHT22;662;48.814;9.318;2023-04-25T10:31:01;10.00;73.00
1337;DHT22;662;48.814;9.318;2023-04-25T10:33:39;10.00;73.40
1337;DHT22;662;48.814;9.318;2023-04-25T10:36:13;10.00;73.70
1337;DHT22;662;48.814;9.318;2023-04-25T10:38:39;10.10;74.30
1337;DHT22;662;48.814;9.318;2023-04-25T10:41:07;10.00;74.30
1337;DHT22;662;48.814;9.318;2023-04-25T10:48:46;9.90;74.90
1337;DHT22;662;48.814;9.318;2023-04-25T10:51:26;9.90;74.90
1337;DHT22;662;48.814;9.318;2023-04-25T10:58:47;9.80;75.20
1337;DHT22;662;48.814;9.318;2023-04-25T11:01:14;9.80;75.50
1337;DHT22;662;48.814;9.318;2023-04-25T11:03:42;9.90;75.80
1337;DHT22;662;48.814;9.318;2023-04-25T11:06:28;9.90;76.10
1337;DHT22;662;48.814;9.318;2023-04-25T11:08:55;10.00;75.20
1337;DHT22;662;48.814;9.318;2023-04-25T11:11:20;10.00;75.20
1337;DHT22;662;48.814;9.318;2023-04-25T11:13:49;10.10;75.30
1337;DHT22;662;48.814;9.318;2023-04-25T11:16:16;10.10;74.80
1337;DHT22;662;48.814;9.318;2023-04-25T11:18:43;10.10;74.60
1337;DHT22;662;48.814;9.318;2023-04-25T11:21:09;10.10;74.50
1337;DHT22;662;48.814;9.318;2023-04-25T11:23:35;10.10;74.20
1337;DHT22;662;48.814;9.318;2023-04-25T11:26:02;10.00;73.60
1337;DHT22;662;48.814;9.318;2023-04-25T11:28:28;10.00;73.60
1337;DHT22;662;48.814;9.318;2023-04-25T11:30:54;10.00;73.70
1337;DHT22;662;48.814;9.318;2023-04-25T11:33:24;10.00;74.00
1337;DHT22;662;48.814;9.318;2023-04-25T11:35:54;10.10;74.40
1337;DHT22;662;48.814;9.318;2023-04-25T11:38:21;10.30;74.50
1337;DHT22;662;48.814;9.318;2023-04-25T11:40:53;10.30;73.80
1337;DHT22;662;48.814;9.318;2023-04-25T11:43:22;10.40;73.30
1337;DHT22;662;48.814;9.318;2023-04-25T11:45:51;10.50;72.80
1337;DHT22;662;48.814;9.318;2023-04-25T11:48:18;10.60;72.70
1337;DHT22;662;48.814;9.318;2023-04-25T11:50:45;10.70;72.80
1337;DHT22;662;48.814;9.318;2023-04-25T11:53:11;10.80;73.00
1337;DHT22;662;48.814;9.318;2023-04-25T11:55:37;11.00;73.00
1337;DHT22;662;48.814;9.318;2023-04-25T11:58:04;11.10;72.60
1337;DHT22;662;48.814;9.318;2023-04-25T12:00:30;11.10;71.80
1337;DHT22;662;48.814;9.318;2023-04-25T12:02:57;11.20;71.50
1337;DHT22;662;48.814;9.318;2023-04-25T12:05:25;11.20;71.40
1337;DHT22;662;48.814;9.318;2023-04-25T12:07:52;11.20;71.40
1337;DHT22;662;48.814;9.318;2023-04-25T12:10:18;11.30;71.20
1337;DHT22;662;48.814;9.318;2023-04-25T12:12:46;11.30;70.60
1337;DHT22;662;48.814;9.318;2023-04-25T12:15:25;11.30;69.40
1337;DHT22;662;48.814;9.318;2023-04-25T12:17:53;11.10;67.80
1337;DHT22;662;48.814;9.318;2023-04-25T12:20:21;11.10;67.80
1337;DHT22;662;48.814;9.318;2023-04-25T12:22:49;11.00;67.80
1337;DHT22;662;48.814;9.318;2023-04-25T12:25:38;10.90;67.60
1337;DHT22;662;48.814;9.318;2023-04-25T12:28:24;10.90;67.90
1337;DHT22;662;48.814;9.318;2023-04-25T12:31:03;10.80;68.10
1337;DHT22;662;48.814;9.318;2023-04-25T12:33:36;10.70;68.10
1337;DHT22;662;48.814;9.318;2023-04-25T12:36:05;10.70;67.90
1337;DHT22;662;48.814;9.318;2023-04-25T12:38:40;10.60;68.40
1337;DHT22;662;48.814;9.318;2023-04-25T12:41:06;10.70;69.20
1337;DHT22;662;48.814;9.318;2023-04-25T12:43:32;10.70;69.20
1337;DHT22;662;48.814;9.318;2023-04-25T12:45:58;10.70;69.10
1337;DHT22;662;48.814;9.318;2023-04-25T12:48:24;10.80;69.60
1337;DHT22;662;48.814;9.318;2023-04-25T12:50:51;10.80;70.00
1337;DHT22;662;48.814;9.318;2023-04-25T12:53:20;10.80;69.90
1337;DHT22;662;48.814;9.318;2023-04-25T12:55:47;10.80;69.80
1337;DHT22;662;48.814;9.318;2023-04-25T12:58:13;10.80;70.00
1337;DHT22;662;48.814;9.318;2023-04-25T13:00:39;10.90;69.90
1337;DHT22;662;48.814;9.318;2023-04-25T13:03:05;11.10;70.30
1337;DHT22;662;48.814;9.318;2023-04-25T13:05:31;11.40;69.80
1337;DHT22;662;48.814;9.318;2023-04-25T13:07:56;11.70;68.80
1337;DHT22;662;48.814;9.318;2023-04-25T13:10:22;12.10;68.30
1337;DHT22;662;48.814;9.318;2023-04-25T13:12:48;12.50;67.50
1337;DHT22;662;48.814;9.318;2023-04-25T13:15:14;13.10;65.20
1337;DHT22;662;48.814;9.318;2023-04-25T13:17:41;13.70;64.60
1337;DHT22;662;48.814;9.318;2023-04-25T13:20:08;14.30;64.10
1337;DHT22;662;48.814;9.318;2023-04-25T13:22:35;14.60;62.30
1337;DHT22;662;48.814;9.318;2023-04-25T13:25:03;14.90;61.70
1337;DHT22;662;48.814;9.318;2023-04-25T13:27:28;15.20;60.70
1337;DHT22;662;48.814;9.318;2023-04-25T13:29:54;15.70;59.40
1337;DHT22;662;48.814;9.318;2023-04-25T13:32:21;15.80;56.80
1337;DHT22;662;48.814;9.318;2023-04-25T13:34:47;15.90;56.20
1337;DHT22;662;48.814;9.318;2023-04-25T13:37:13;16.20;55.80
1337;DHT22;662;48.814;9.318;2023-04-25T13:39:38;15.90;54.40
1337;DHT22;662;48.814;9.318;2023-04-25T13:42:04;15.60;55.50
1337;DHT22;662;48.814;9.318;2023-04-25T13:44:30;15.40;56.10
1337;DHT22;662;48.814;9.318;2023-04-25T13:46:55;15.20;55.60
1337;DHT22;662;48.814;9.318;2023-04-25T13:49:21;15.00;55.90
1337;DHT22;662;48.814;9.318;2023-04-25T13:51:48;14.90;56.00
1337;DHT22;662;48.814;9.318;2023-04-25T13:54:13;14.80;56.70
1337;DHT22;662;48.814;9.318;2023-04-25T13:56:41;14.90;57.20
1337;DHT22;662;48.814;9.318;2023-04-25T13:59:07;14.90;57.20
1337;DHT22;662;48.814;9.318;2023-04-25T14:01:33;14.60;56.20
1337;DHT22;662;48.814;9.318;2023-04-25T14:04:01;14.40;56.90
1337;DHT22;662;48.814;9.318;2023-04-25T14:06:27;14.30;57.50
1337;DHT22;662;48.814;9.318;2023-04-25T14:08:53;14.50;58.00
1337;DHT22;662;48.814;9.318;2023-04-25T14:11:20;14.70;58.30
1337;DHT22;662;48.814;9.318;2023-04-25T14:13:47;15.00;58.30
1337;DHT22;662;48.814;9.318;2023-04-25T14:16:15;15.30;58.30
1337;DHT22;662;48.814;9.318;2023-04-25T14:18:41;15.50;56.60
1337;DHT22;662;48.814;9.318;2023-04-25T14:21:07;16.10;56.80
1337;DHT22;662;48.814;9.318;2023-04-25T14:23:32;16.60;56.00
1337;DHT22;662;48.814;9.318;2023-04-25T14:25:58;17.20;55.20
1337;DHT22;662;48.814;9.318;2023-04-25T14:28:24;17.30;53.30
1337;DHT22;662;48.814;9.318;2023-04-25T14:30:51;17.10;53.00
1337;DHT22;662;48.814;9.318;2023-04-25T14:33:16;16.80;52.50
1337;DHT22;662;48.814;9.318;2023-04-25T14:35:42;16.70;53.30
1337;DHT22;662;48.814;9.318;2023-04-25T14:38:08;16.90;54.00
1337;DHT22;662;48.814;9.318;2023-04-25T14:40:33;17.50;52.80
1337;DHT22;662;48.814;9.318;2023-04-25T14:43:01;17.80;51.70
1337;DHT22;662;48.814;9.318;2023-04-25T14:45:27;17.90;50.30
1337;DHT22;662;48.814;9.318;2023-04-25T14:47:52;17.60;48.50
1337;DHT22;662;48.814;9.318;2023-04-25T14:50:18;17.10;49.50
1337;DHT22;662;48.814;9.318;2023-04-25T14:52:44;16.80;50.70
1337;DHT22;662;48.814;9.318;2023-04-25T14:55:10;16.60;51.60
1337;DHT22;662;48.814;9.318;2023-04-25T14:57:36;16.70;52.50
1337;DHT22;662;48.814;9.318;2023-04-25T15:00:03;16.90;51.20
1337;DHT22;662;48.814;9.318;2023-04-25T15:02:32;17.00;51.50
1337;DHT22;662;48.814;9.318;2023-04-25T15:04:57;16.80;51.30
1337;DHT22;662;48.814;9.318;2023-04-25T15:07:23;16.50;51.00
1337;DHT22;662;48.814;9.318;2023-04-25T15:09:49;16.40;51.70
1337;DHT22;662;48.814;9.318;2023-04-25T15:12:15;16.40;51.90
1337;DHT22;662;48.814;9.318;2023-04-25T15:14:40;16.70;52.00
1337;DHT22;662;48.814;9.318;2023-04-25T15:17:06;17.00;52.00
1337;DHT22;662;48.814;9.318;2023-04-25T15:19:32;17.00;52.40
1337;DHT22;662;48.814;9.318;2023-04-25T15:21:58;16.90;51.70
1337;DHT22;662;48.814;9.318;2023-04-25T15:24:26;16.80;51.50
1337;DHT22;662;48.814;9.318;2023-04-25T15:26:53;16.60;51.70
1337;DHT22;662;48.814;9.318;2023-04-25T15:29:18;16.50;51.70
1337;DHT22;662;48.814;9.318;2023-04-25T15:31:44;16.30;51.90
1337;DHT22;662;48.814;9.318;2023-04-25T15:34:10;16.10;52.00
1337;DHT22;662;48.814;9.318;2023-04-25T15:36:36;16.00;52.40
1337;DHT22;662;48.814;9.318;2023-04-25T15:39:02;15.90;52.60
1337;DHT22;662;48.814;9.318;2023-04-25T15:41:28;15.80;51.90
1337;DHT22;662;48.814;9.318;2023-04-25T15:43:54;15.60;51.60
1337;DHT22;662;48.814;9.318;2023-04-25T15:46:21;15.50;51.80
1337;DHT22;662;48.814;9.318;2023-04-25T15:48:48;15.40;52.20
1337;DHT22;662;48.814;9.318;2023-04-25T15:51:14;15.30;52.60
1337;DHT22;662;48.814;9.318;2023-04-25T15:53:40;15.30;52.70
1337;DHT22;662;48.814;9.318;2023-04-25T15:56:05;15.20;53.00
1337;DHT22;662;48.814;9.318;2023-04-25T15:58:31;15.20;53.20
1337;DHT22;662;48.814;9.318;2023-04-25T16:00:57;15.20;53.20
1337;DHT22;662;48.814;9.318;2023-04-25T16:03:22;15.10;53.20
1337;DHT22;662;48.814;9.318;2023-04-25T16:05:48;15.00;53.40
1337;DHT22;662;48.814;9.318;2023-04-25T16:08:14;15.00;53.70
1337;DHT22;662;48.814;9.318;2023-04-25T16:10:40;15.00;53.80
1337;DHT22;662;48.814;9.318;2023-04-25T16:13:06;14.90;53.90
1337;DHT22;662;48.814;9.318;2023-04-25T16:15:32;14.80;53.80
1337;DHT22;662;48.814;9.318;2023-04-25T16:17:58;14.70;54.10
1337;DHT22;662;48.814;9.318;2023-04-25T16:20:23;14.70;54.20
1337;DHT22;662;48.814;9.318;2023-04-25T16:22:49;14.60;54.30
1337;DHT22;662;48.814;9.318;2023-04-25T16:25:14;14.50;54.50